Time;durP1;ratioP1;P1;durP2;ratioP2;P2;SDS_P1;SDS_P2;PMS_P1;PMS_P2;Temp;Humidity;BMP_temperature;BMP_pressure;BME280_temperature;BME280_humidity;BME280_pressure;Samples;Min_cycle;Max_cycle;Signal;HPM_P1;HPM_P2
2024/01/09 00:00:18;;;;;;;6.78;2.28;;;9.90;75.80;;;;;;5033958;28;20412;-75
2024/01/09 00:02:43;;;;;;;5.15;2.65;;;9.90;75.90;;;;;;5034276;28;20156;-74
2024/01/09 00:05:09;;;;;;;5.38;2.50;;;9.90;76.00;;;;;;5042428;28;20040;-75
2024/01/09 00:07:35;;;;;;;5.47;2.08;;;9.90;76.20;;;;;;5053631;28;20503;-74
2024/01/09 00:10:00;;;;;;;5.43;2.60;;;9.90;76.40;;;;;;5054042;28;20120;-75
2024/01/09 00:12:26;;;;;;;6.35;2.00;;;9.90;76.00;;;;;;5055561;28;20029;-74
2024/01/09 00:14:51;;;;;;;6.20;2.85;;;9.90;75.90;;;;;;5035900;28;20033;-74
2024/01/09 00:17:17;;;;;;;5.65;2.45;;;9.90;76.10;;;;;;5053256;28;20031;-75
2024/01/09 00:19:43;;;;;;;4.70;2.47;;;9.90;76.10;;;;;;5053417;28;20466;-75
2024/01/09 00:22:08;;;;;;;5.03;2.30;;;9.80;75.80;;;;;;5053470;28;20033;-75
2024/01/09 00:24:34;;;;;;;4.57;2.20;;;9.80;76.50;;;;;;5053479;28;20423;-75
2024/01/09 00:27:00;;;;;;;5.18;2.08;;;9.80;76.00;;;;;;5053551;28;20061;-75
2024/01/09 00:29:26;;;;;;;4.50;2.28;;;9.70;76.10;;;;;;5053311;28;20407;-75
2024/01/09 00:31:52;;;;;;;4.82;2.20;;;9.70;76.10;;;;;;5053286;28;20112;-75
2024/01/09 00:34:18;;;;;;;4.05;2.17;;;9.70;76.30;;;;;;5053238;28;20543;-73
2024/01/09 00:36:44;;;;;;;5.22;3.00;;;9.70;76.20;;;;;;5053229;28;20037;-76
2024/01/09 00:39:11;;;;;;;4.97;2.65;;;9.70;76.20;;;;;;5053249;28;20048;-74
2024/01/09 00:41:36;;;;;;;5.90;2.50;;;9.80;76.30;;;;;;5053209;28;20403;-74
2024/01/09 00:44:02;;;;;;;4.97;2.03;;;9.80;76.20;;;;;;5035173;28;20037;-75
2024/01/09 00:46:28;;;;;;;5.28;2.33;;;9.70;76.30;;;;;;5053076;28;20037;-75
2024/01/09 00:48:54;;;;;;;4.15;2.00;;;9.70;76.20;;;;;;5053206;28;20411;-74
2024/01/09 00:51:19;;;;;;;4.65;2.50;;;9.60;76.30;;;;;;5053182;28;20512;-75
2024/01/09 00:53:45;;;;;;;5.43;2.17;;;9.60;76.70;;;;;;5052999;28;20411;-75
2024/01/09 00:56:11;;;;;;;6.72;2.47;;;9.60;77.00;;;;;;5052963;28;20021;-73
2024/01/09 00:58:37;;;;;;;5.40;2.28;;;9.60;77.00;;;;;;5053041;28;20095;-75
2024/01/09 01:01:03;;;;;;;4.93;2.45;;;9.60;76.70;;;;;;5052919;28;20045;-76
2024/01/09 01:03:29;;;;;;;6.95;2.30;;;9.60;76.50;;;;;;5052691;28;20036;-74
2024/01/09 01:05:55;;;;;;;4.38;2.45;;;9.60;76.40;;;;;;5052849;28;20021;-75
2024/01/09 01:08:21;;;;;;;4.43;2.30;;;9.60;76.60;;;;;;5052959;28;20043;-75
2024/01/09 01:10:48;;;;;;;5.60;2.38;;;9.60;76.80;;;;;;5052850;28;20479;-76
2024/01/09 01:13:13;;;;;;;5.15;2.35;;;9.60;76.80;;;;;;5052961;28;20084;-74
2024/01/09 01:15:39;;;;;;;6.65;2.50;;;9.60;76.80;;;;;;5052908;28;20068;-74
2024/01/09 01:18:05;;;;;;;5.88;2.45;;;9.60;76.80;;;;;;5051680;28;20044;-75
2024/01/09 01:20:31;;;;;;;7.20;2.40;;;9.60;77.10;;;;;;5052702;28;20037;-74
2024/01/09 01:22:57;;;;;;;4.38;2.30;;;9.60;77.10;;;;;;5053024;28;20040;-74
2024/01/09 01:25:22;;;;;;;4.50;2.03;;;9.60;77.10;;;;;;5052605;28;20033;-75
2024/01/09 01:27:48;;;;;;;4.28;2.40;;;9.60;77.00;;;;;;5052257;28;20033;-74
2024/01/09 01:30:14;;;;;;;5.70;2.25;;;9.60;76.80;;;;;;5052471;28;20028;-74
2024/01/09 01:32:40;;;;;;;5.90;2.30;;;9.50;76.80;;;;;;5052494;28;20472;-74
2024/01/09 01:35:06;;;;;;;4.93;2.05;;;9.50;76.80;;;;;;5034844;28;20029;-75
2024/01/09 01:37:31;;;;;;;4.38;2.22;;;9.40;77.30;;;;;;5052467;28;20029;-75
2024/01/09 01:39:57;;;;;;;4.75;2.17;;;9.40;76.80;;;;;;5039025;28;20045;-74
2024/01/09 01:42:23;;;;;;;5.13;2.30;;;9.40;76.90;;;;;;5032834;28;20038;-75
2024/01/09 01:44:48;;;;;;;4.88;2.30;;;9.30;77.00;;;;;;5032784;28;20454;-74
2024/01/09 01:47:14;;;;;;;5.53;2.50;;;9.30;77.10;;;;;;5032873;28;20056;-74
2024/01/09 01:49:41;;;;;;;4.60;2.40;;;9.30;77.40;;;;;;5032866;28;20504;-74
2024/01/09 01:52:09;;;;;;;4.55;2.28;;;9.30;77.30;;;;;;5033275;28;20029;-75
2024/01/09 01:54:37;;;;;;;4.65;2.20;;;9.30;77.30;;;;;;5032772;28;20422;-74
2024/01/09 01:57:04;;;;;;;5.25;2.15;;;9.40;77.50;;;;;;5031760;28;20040;-75
2024/01/09 01:59:32;;;;;;;4.40;2.10;;;9.30;77.70;;;;;;5031570;28;20037;-74
2024/01/09 02:01:59;;;;;;;7.13;2.53;;;9.30;77.60;;;;;;5031887;28;20468;-74
2024/01/09 02:04:25;;;;;;;5.85;2.40;;;9.40;77.70;;;;;;5030342;28;20149;-74
2024/01/09 02:06:51;;;;;;;4.65;2.58;;;9.40;77.80;;;;;;5032044;28;20475;-75
2024/01/09 02:09:18;;;;;;;4.45;2.28;;;9.30;77.60;;;;;;5032128;28;20034;-76
2024/01/09 02:11:46;;;;;;;5.63;2.70;;;9.30;77.30;;;;;;5032274;28;20030;-75
2024/01/09 02:14:12;;;;;;;4.72;2.17;;;9.40;77.70;;;;;;5031951;28;20083;-76
2024/01/09 02:16:38;;;;;;;3.78;1.73;;;9.30;77.60;;;;;;5031882;28;20122;-74
2024/01/09 02:19:03;;;;;;;4.80;2.38;;;9.30;77.80;;;;;;5032007;28;20040;-75
2024/01/09 02:21:29;;;;;;;6.78;2.47;;;9.40;77.70;;;;;;5035161;28;20500;-75
2024/01/09 02:23:55;;;;;;;5.82;2.20;;;9.30;77.50;;;;;;5031926;28;20045;-75
2024/01/09 02:26:25;;;;;;;4.95;2.55;;;9.30;77.50;;;;;;5031885;28;20042;-74
2024/01/09 02:28:56;;;;;;;5.85;2.58;;;9.30;77.30;;;;;;5031482;28;20381;-74
2024/01/09 02:31:22;;;;;;;6.55;2.30;;;9.30;77.30;;;;;;5035839;28;20034;-74
2024/01/09 02:33:49;;;;;;;5.47;2.80;;;9.30;77.60;;;;;;5035614;28;20026;-76
2024/01/09 02:36:14;;;;;;;5.93;2.67;;;9.20;77.40;;;;;;5035577;28;20033;-74
2024/01/09 02:38:40;;;;;;;4.97;2.40;;;9.30;77.70;;;;;;5035645;28;20441;-74
2024/01/09 02:41:06;;;;;;;4.65;2.40;;;9.30;77.70;;;;;;5035795;28;20445;-75
2024/01/09 02:43:31;;;;;;;5.63;2.50;;;9.30;77.80;;;;;;5035882;28;20034;-74
2024/01/09 02:45:57;;;;;;;4.32;2.33;;;9.20;77.70;;;;;;5035827;28;20048;-75
2024/01/09 02:48:23;;;;;;;5.03;2.22;;;9.20;77.70;;;;;;5035298;28;20060;-77
2024/01/09 02:50:49;;;;;;;5.05;2.60;;;9.10;77.80;;;;;;5035597;28;20076;-75
2024/01/09 02:53:14;;;;;;;4.38;2.40;;;9.10;77.70;;;;;;5035450;28;20029;-74
2024/01/09 02:55:40;;;;;;;6.57;2.50;;;9.10;77.80;;;;;;5035608;28;20053;-76
2024/01/09 02:58:05;;;;;;;5.10;2.40;;;9.10;77.60;;;;;;5035294;28;20029;-74
2024/01/09 03:00:31;;;;;;;5.95;2.20;;;9.10;78.00;;;;;;5035224;28;20053;-75
2024/01/09 03:02:57;;;;;;;6.07;2.15;;;9.00;77.60;;;;;;5035139;28;20111;-74
2024/01/09 03:05:23;;;;;;;3.70;2.00;;;9.00;77.70;;;;;;5035356;28;20396;-74
2024/01/09 03:07:48;;;;;;;7.53;2.53;;;9.00;77.60;;;;;;5035119;28;20030;-75
2024/01/09 03:10:14;;;;;;;4.47;2.10;;;9.00;77.80;;;;;;5033641;28;20057;-73
2024/01/09 03:12:40;;;;;;;5.50;2.47;;;9.00;77.10;;;;;;5035025;28;20034;-76
2024/01/09 03:15:06;;;;;;;4.97;2.58;;;9.00;77.10;;;;;;5034899;28;20033;-74
2024/01/09 03:17:32;;;;;;;7.00;2.70;;;9.00;77.50;;;;;;5033563;28;20466;-74
2024/01/09 03:19:58;;;;;;;7.75;2.50;;;9.00;77.20;;;;;;5033210;28;20132;-74
2024/01/09 03:22:23;;;;;;;5.38;2.80;;;9.00;77.30;;;;;;5035465;28;20064;-75
2024/01/09 03:24:49;;;;;;;7.45;2.60;;;9.00;77.20;;;;;;5035310;28;20042;-74
2024/01/09 03:27:15;;;;;;;7.25;3.13;;;8.90;77.30;;;;;;5035023;28;20025;-76
2024/01/09 03:29:40;;;;;;;6.25;2.80;;;8.90;77.30;;;;;;5034436;28;20120;-75
2024/01/09 03:32:06;;;;;;;6.38;2.60;;;8.90;77.20;;;;;;5034837;28;20075;-75
2024/01/09 03:34:32;;;;;;;5.13;2.75;;;8.90;77.70;;;;;;5034838;28;20404;-75
2024/01/09 03:36:58;;;;;;;8.52;2.70;;;8.90;77.60;;;;;;5034530;28;20064;-75
2024/01/09 03:39:23;;;;;;;6.72;2.83;;;8.90;77.60;;;;;;5034543;28;20502;-75
2024/01/09 03:41:49;;;;;;;6.63;2.50;;;8.90;77.50;;;;;;5033882;28;20030;-76
2024/01/09 03:44:15;;;;;;;6.85;2.53;;;8.90;77.30;;;;;;5034519;28;20085;-75
2024/01/09 03:46:41;;;;;;;7.40;2.80;;;8.80;77.00;;;;;;5034464;28;20025;-76
2024/01/09 03:49:07;;;;;;;6.13;2.60;;;8.80;77.50;;;;;;5034266;28;20064;-75
2024/01/09 03:51:32;;;;;;;6.22;2.88;;;8.70;77.30;;;;;;5034516;28;20570;-75
2024/01/09 03:53:58;;;;;;;6.60;3.03;;;8.70;77.80;;;;;;5033047;28;20044;-73
2024/01/09 03:56:26;;;;;;;5.10;2.35;;;8.70;77.60;;;;;;5034509;28;20060;-75
2024/01/09 03:58:52;;;;;;;6.03;3.13;;;8.70;78.00;;;;;;5034351;28;20117;-74
2024/01/09 04:01:19;;;;;;;5.25;2.70;;;8.70;77.80;;;;;;5034107;28;20116;-75
2024/01/09 04:03:45;;;;;;;8.15;3.13;;;8.70;77.50;;;;;;5033974;28;20084;-74
2024/01/09 04:06:11;;;;;;;5.32;3.03;;;8.70;78.00;;;;;;5033937;28;20033;-75
2024/01/09 04:08:37;;;;;;;5.93;2.92;;;8.70;78.10;;;;;;5033871;28;20026;-76
2024/01/09 04:11:06;;;;;;;8.60;3.00;;;8.70;78.10;;;;;;5034064;28;20033;-76
2024/01/09 04:13:31;;;;;;;7.50;3.15;;;8.60;78.20;;;;;;5033736;28;20129;-75
2024/01/09 04:15:57;;;;;;;8.18;3.08;;;8.60;78.30;;;;;;5033940;28;20112;-76
2024/01/09 04:18:23;;;;;;;7.53;3.05;;;8.60;78.40;;;;;;5016454;28;20030;-75
2024/01/09 04:20:49;;;;;;;5.70;2.80;;;8.60;78.50;;;;;;5035212;28;20076;-75
2024/01/09 04:23:14;;;;;;;9.95;3.33;;;8.60;78.30;;;;;;5035834;28;20057;-75
2024/01/09 04:25:40;;;;;;;6.20;3.17;;;8.60;78.40;;;;;;5033749;28;20503;-75
2024/01/09 04:28:06;;;;;;;9.60;3.25;;;8.60;78.40;;;;;;5033903;28;20083;-75
2024/01/09 04:30:32;;;;;;;9.65;3.00;;;8.60;78.40;;;;;;5033592;28;20405;-76
2024/01/09 04:32:57;;;;;;;4.95;2.95;;;8.60;78.30;;;;;;5033465;28;20512;-78
2024/01/09 04:35:23;;;;;;;8.45;3.03;;;8.60;78.30;;;;;;5033559;28;20042;-75
2024/01/09 04:37:48;;;;;;;8.70;3.40;;;8.60;78.20;;;;;;5033607;28;20080;-74
2024/01/09 04:40:14;;;;;;;6.93;3.50;;;8.60;78.30;;;;;;5033480;28;20038;-75
2024/01/09 04:42:40;;;;;;;7.55;3.30;;;8.60;78.00;;;;;;5033274;28;20171;-75
2024/01/09 04:45:06;;;;;;;5.60;3.10;;;8.50;78.00;;;;;;5033613;28;20068;-76
2024/01/09 04:47:32;;;;;;;5.68;2.60;;;8.50;78.40;;;;;;5033236;28;20072;-75
2024/01/09 04:49:57;;;;;;;6.78;3.30;;;8.40;78.00;;;;;;5033226;28;20438;-76
2024/01/09 04:52:23;;;;;;;5.22;3.08;;;8.40;77.90;;;;;;5032760;28;20137;-78
2024/01/09 04:54:49;;;;;;;6.90;3.08;;;8.40;78.10;;;;;;5033623;28;20061;-75
2024/01/09 04:57:15;;;;;;;6.38;2.95;;;8.50;78.40;;;;;;5033305;28;20401;-74
2024/01/09 04:59:42;;;;;;;7.53;3.08;;;8.40;78.20;;;;;;5033722;28;20396;-75
2024/01/09 05:02:08;;;;;;;6.82;2.60;;;8.40;77.80;;;;;;5035994;28;20048;-75
2024/01/09 05:04:34;;;;;;;6.97;2.72;;;8.30;77.70;;;;;;5040236;28;20041;-75
2024/01/09 05:07:00;;;;;;;6.47;3.15;;;8.30;77.70;;;;;;5034289;28;20041;-75
2024/01/09 05:09:27;;;;;;;6.25;3.05;;;8.30;78.30;;;;;;5032851;28;20028;-75
2024/01/09 05:11:52;;;;;;;8.75;3.40;;;8.30;78.40;;;;;;5032999;28;20037;-74
2024/01/09 05:14:18;;;;;;;6.40;3.13;;;8.30;78.60;;;;;;5032977;28;20030;-74
2024/01/09 05:16:44;;;;;;;8.45;3.40;;;8.30;78.50;;;;;;5032798;28;20045;-75
2024/01/09 05:19:09;;;;;;;7.63;3.05;;;8.30;78.60;;;;;;5032773;28;20049;-75
2024/01/09 05:21:35;;;;;;;8.25;3.63;;;8.30;78.70;;;;;;5032515;28;20064;-75
2024/01/09 05:24:01;;;;;;;8.30;3.35;;;8.30;78.60;;;;;;5032675;28;20048;-74
2024/01/09 05:26:27;;;;;;;7.93;3.60;;;8.40;78.60;;;;;;5032485;28;20033;-75
2024/01/09 05:28:52;;;;;;;7.72;3.38;;;8.40;79.40;;;;;;5032675;28;20026;-74
2024/01/09 05:31:18;;;;;;;8.98;3.35;;;8.40;78.70;;;;;;5032524;28;20034;-74
2024/01/09 05:33:44;;;;;;;7.68;3.53;;;8.30;78.40;;;;;;5032767;28;20026;-75
2024/01/09 05:36:10;;;;;;;7.38;3.47;;;8.30;78.40;;;;;;5032452;28;20117;-75
2024/01/09 05:38:35;;;;;;;7.57;3.25;;;8.30;78.80;;;;;;5032824;28;20053;-75
2024/01/09 05:41:01;;;;;;;8.18;3.55;;;8.20;78.70;;;;;;5032052;28;20485;-74
2024/01/09 05:43:27;;;;;;;7.63;3.50;;;8.10;79.00;;;;;;5030950;28;20032;-76
2024/01/09 05:45:53;;;;;;;7.90;3.72;;;8.00;79.00;;;;;;5032143;28;20045;-74
2024/01/09 05:48:18;;;;;;;6.88;3.20;;;8.00;79.20;;;;;;5032112;28;20025;-74
2024/01/09 05:50:44;;;;;;;7.68;3.50;;;8.00;79.10;;;;;;5032282;28;20045;-75
2024/01/09 05:53:10;;;;;;;6.40;3.28;;;8.00;79.50;;;;;;5032409;28;20030;-75
2024/01/09 05:55:36;;;;;;;8.25;3.83;;;8.00;79.20;;;;;;5032069;28;20072;-74
2024/01/09 05:58:02;;;;;;;7.75;3.47;;;8.00;79.30;;;;;;5032239;28;20033;-75
2024/01/09 06:00:27;;;;;;;8.35;3.60;;;8.00;79.30;;;;;;5032143;28;20056;-75
2024/01/09 06:02:53;;;;;;;9.63;4.05;;;8.00;79.40;;;;;;5032147;28;20549;-75
2024/01/09 06:05:19;;;;;;;8.40;4.10;;;8.00;79.50;;;;;;5037996;28;20029;-75
2024/01/09 06:07:44;;;;;;;12.15;4.95;;;8.10;79.50;;;;;;5038921;28;20033;-75
2024/01/09 06:10:10;;;;;;;6.40;3.60;;;8.10;79.20;;;;;;5039026;28;20110;-76
2024/01/09 06:12:36;;;;;;;10.40;3.88;;;8.10;79.30;;;;;;5038726;28;20489;-75
2024/01/09 06:15:03;;;;;;;7.55;3.53;;;8.10;79.40;;;;;;5038766;28;20141;-77
2024/01/09 06:17:29;;;;;;;8.65;3.92;;;8.10;79.50;;;;;;5038738;28;20034;-75
2024/01/09 06:19:54;;;;;;;7.35;3.50;;;8.00;79.30;;;;;;5052479;28;20087;-73
2024/01/09 06:22:20;;;;;;;11.82;3.97;;;8.00;79.40;;;;;;5043315;28;20048;-72
2024/01/09 06:24:46;;;;;;;14.55;3.55;;;8.00;79.10;;;;;;5038598;28;20041;-76
2024/01/09 06:27:11;;;;;;;7.40;3.58;;;8.00;79.30;;;;;;5053941;28;20104;-74
2024/01/09 06:29:37;;;;;;;7.32;4.20;;;8.00;79.10;;;;;;5057983;28;20063;-76
2024/01/09 06:32:03;;;;;;;9.52;3.53;;;8.00;79.60;;;;;;5058738;28;20060;-71
2024/01/09 06:34:29;;;;;;;8.27;4.15;;;8.00;79.50;;;;;;5058810;28;20035;-73
2024/01/09 06:36:54;;;;;;;13.18;4.35;;;8.00;79.50;;;;;;5058821;28;20477;-73
2024/01/09 06:39:20;;;;;;;8.27;4.00;;;8.00;79.60;;;;;;5040730;28;20029;-69
2024/01/09 06:41:46;;;;;;;8.30;4.32;;;8.10;80.30;;;;;;5058409;28;20044;-73
2024/01/09 06:44:12;;;;;;;7.43;4.15;;;8.10;80.10;;;;;;5058490;28;20400;-73
2024/01/09 06:46:37;;;;;;;7.80;3.92;;;8.10;79.40;;;;;;5057757;28;20037;-70
2024/01/09 06:49:03;;;;;;;9.40;5.47;;;8.20;80.20;;;;;;5058277;28;20055;-70
2024/01/09 06:51:29;;;;;;;8.43;3.30;;;8.20;79.80;;;;;;5057932;28;20086;-70
2024/01/09 06:53:55;;;;;;;10.40;4.53;;;8.30;79.50;;;;;;5057691;28;20040;-69
2024/01/09 06:56:21;;;;;;;9.60;4.07;;;8.30;79.90;;;;;;5058018;28;20033;-73
2024/01/09 06:58:47;;;;;;;8.00;4.22;;;8.30;79.60;;;;;;5057875;28;20108;-74
2024/01/09 07:01:12;;;;;;;7.82;3.85;;;8.40;79.40;;;;;;5057803;28;20041;-72
2024/01/09 07:03:38;;;;;;;8.13;3.83;;;8.50;79.40;;;;;;5039962;28;20036;-73
2024/01/09 07:06:04;;;;;;;8.63;4.30;;;8.60;79.00;;;;;;5039999;28;20172;-73
2024/01/09 07:08:30;;;;;;;8.45;3.83;;;8.60;78.70;;;;;;5057495;28;20115;-73
2024/01/09 07:10:59;;;;;;;9.07;3.65;;;8.50;78.20;;;;;;5057962;28;20148;-73
2024/01/09 07:13:25;;;;;;;7.40;3.90;;;8.60;79.00;;;;;;5057594;28;20112;-73
2024/01/09 07:15:50;;;;;;;9.00;3.92;;;8.60;78.70;;;;;;5055583;28;20437;-72
2024/01/09 07:18:16;;;;;;;11.40;4.05;;;8.70;78.60;;;;;;5054406;28;20087;-72
2024/01/09 07:20:43;;;;;;;11.35;3.88;;;8.70;78.70;;;;;;5054469;28;20041;-72
2024/01/09 07:23:09;;;;;;;6.90;3.92;;;8.80;78.50;;;;;;5036378;28;20029;-72
2024/01/09 07:25:35;;;;;;;8.98;4.88;;;8.80;78.40;;;;;;5036426;28;20463;-74
2024/01/09 07:28:00;;;;;;;9.18;3.92;;;8.90;78.50;;;;;;5054264;28;20094;-73
2024/01/09 07:30:26;;;;;;;9.82;3.75;;;8.80;78.40;;;;;;5054217;28;20345;-71
2024/01/09 07:32:52;;;;;;;7.90;3.88;;;8.80;78.00;;;;;;5054155;28;20037;-73
2024/01/09 07:35:17;;;;;;;9.07;4.10;;;8.80;78.10;;;;;;5054239;28;20416;-73
2024/01/09 07:37:43;;;;;;;11.50;3.88;;;8.90;78.20;;;;;;5054218;28;20149;-73
2024/01/09 07:40:10;;;;;;;7.45;3.70;;;8.90;78.10;;;;;;5054225;28;20033;-73
2024/01/09 07:42:35;;;;;;;10.88;4.20;;;8.90;78.40;;;;;;5033907;28;20045;-73
2024/01/09 07:45:02;;;;;;;11.30;4.07;;;8.90;77.90;;;;;;5033890;28;20044;-70
2024/01/09 07:47:28;;;;;;;11.35;4.60;;;8.90;77.90;;;;;;5034189;28;20508;-69
2024/01/09 07:49:54;;;;;;;7.65;3.92;;;9.00;77.90;;;;;;5033613;28;20160;-70
2024/01/09 07:52:20;;;;;;;8.65;4.50;;;9.00;77.90;;;;;;5034239;28;20100;-69
2024/01/09 07:54:46;;;;;;;8.02;4.50;;;8.90;78.20;;;;;;5042795;28;20047;-70
2024/01/09 07:57:11;;;;;;;7.38;4.07;;;9.00;78.90;;;;;;5053881;28;20029;-70
2024/01/09 07:59:39;;;;;;;6.75;3.88;;;9.00;78.20;;;;;;5053803;28;20456;-71
2024/01/09 08:02:06;;;;;;;7.00;4.32;;;9.10;77.90;;;;;;5053810;28;20040;-71
2024/01/09 08:04:32;;;;;;;10.88;4.47;;;9.10;78.00;;;;;;5053998;28;20091;-70
2024/01/09 08:06:57;;;;;;;6.15;3.70;;;9.10;77.70;;;;;;5054047;28;20040;-70
2024/01/09 08:09:24;;;;;;;11.57;4.35;;;9.10;77.80;;;;;;5054036;28;20025;-70
2024/01/09 08:11:49;;;;;;;14.07;5.10;;;9.20;77.90;;;;;;5053721;28;20048;-70
2024/01/09 08:14:15;;;;;;;9.70;4.80;;;9.20;77.70;;;;;;5053650;28;20380;-70
2024/01/09 08:16:41;;;;;;;10.15;5.53;;;9.20;77.30;;;;;;5053585;28;20033;-70
2024/01/09 08:19:07;;;;;;;14.57;5.07;;;9.30;78.00;;;;;;5045195;28;20045;-71
2024/01/09 08:21:35;;;;;;;9.95;5.07;;;9.20;77.70;;;;;;5033607;28;20053;-70
2024/01/09 08:24:01;;;;;;;11.63;4.47;;;9.30;78.00;;;;;;5033429;28;20026;-71
2024/01/09 08:26:27;;;;;;;9.88;4.40;;;9.30;77.50;;;;;;5033077;28;20037;-72
2024/01/09 08:28:52;;;;;;;11.45;4.40;;;9.30;77.50;;;;;;5033594;28;20113;-71
2024/01/09 08:31:18;;;;;;;8.57;4.22;;;9.40;77.60;;;;;;5033295;28;20033;-70
2024/01/09 08:33:44;;;;;;;11.60;5.05;;;9.40;77.40;;;;;;5032024;28;20083;-71
2024/01/09 08:36:09;;;;;;;16.67;4.90;;;9.40;77.50;;;;;;5032017;28;20038;-70
2024/01/09 08:38:35;;;;;;;10.57;4.32;;;9.50;77.60;;;;;;5033212;28;20034;-71
2024/01/09 08:41:02;;;;;;;8.32;4.13;;;9.60;77.40;;;;;;5032930;28;20436;-70
2024/01/09 08:43:28;;;;;;;9.02;4.00;;;9.70;77.20;;;;;;5033129;28;20109;-71
2024/01/09 08:45:54;;;;;;;13.38;5.10;;;9.70;76.80;;;;;;5033229;28;20069;-71
2024/01/09 08:48:20;;;;;;;9.98;4.20;;;9.70;76.80;;;;;;5032675;28;20060;-70
2024/01/09 08:50:46;;;;;;;9.45;3.80;;;9.70;77.00;;;;;;5033181;28;20057;-71
2024/01/09 08:53:11;;;;;;;7.75;3.67;;;9.70;76.30;;;;;;5033110;28;20038;-71
2024/01/09 08:55:37;;;;;;;8.40;4.00;;;9.80;76.30;;;;;;5032712;28;20101;-71
2024/01/09 08:58:03;;;;;;;15.98;4.75;;;9.80;76.60;;;;;;5032926;28;20393;-70
2024/01/09 09:00:29;;;;;;;19.67;5.35;;;9.80;76.40;;;;;;5032722;28;20071;-71
2024/01/09 09:02:55;;;;;;;9.18;3.47;;;9.90;76.00;;;;;;5032693;28;20037;-70
2024/01/09 09:05:20;;;;;;;9.32;3.88;;;9.90;75.80;;;;;;5032830;28;20065;-71
2024/01/09 09:07:46;;;;;;;8.57;3.97;;;9.80;75.70;;;;;;5032990;28;20037;-71
2024/01/09 09:10:12;;;;;;;6.82;3.50;;;9.80;75.60;;;;;;5032630;28;20038;-72
2024/01/09 09:12:38;;;;;;;9.90;3.97;;;9.70;75.70;;;;;;5032811;28;20444;-71
2024/01/09 09:15:04;;;;;;;10.38;4.07;;;9.80;75.60;;;;;;5032625;28;20381;-71
2024/01/09 09:17:30;;;;;;;12.48;3.60;;;9.80;75.80;;;;;;5032817;28;20025;-71
2024/01/09 09:19:57;;;;;;;9.35;3.53;;;9.80;75.80;;;;;;5031154;28;20053;-70
2024/01/09 09:22:25;;;;;;;11.20;3.83;;;9.80;75.60;;;;;;5032417;28;20029;-70
2024/01/09 09:24:52;;;;;;;9.45;3.70;;;9.90;75.50;;;;;;5032660;28;20083;-70
2024/01/09 09:27:18;;;;;;;7.85;4.20;;;9.90;75.30;;;;;;5032452;28;20033;-70
2024/01/09 09:29:44;;;;;;;7.63;3.65;;;9.90;75.30;;;;;;5014888;28;20069;-71
2024/01/09 09:32:09;;;;;;;9.35;4.20;;;9.90;75.40;;;;;;5032358;28;20430;-71
2024/01/09 09:34:37;;;;;;;7.63;4.50;;;10.00;74.40;;;;;;5032349;28;20072;-71
2024/01/09 09:37:03;;;;;;;8.68;4.20;;;10.00;74.30;;;;;;5030952;28;20033;-72
2024/01/09 09:39:29;;;;;;;8.38;4.20;;;10.10;74.80;;;;;;5032020;28;20033;-71
2024/01/09 09:41:59;;;;;;;10.15;4.13;;;10.20;74.80;;;;;;5032226;28;20452;-71
2024/01/09 09:44:26;;;;;;;9.18;4.10;;;10.20;74.50;;;;;;5032375;28;20485;-71
2024/01/09 09:46:52;;;;;;;9.27;4.00;;;10.30;74.30;;;;;;5032412;28;20136;-70
2024/01/09 09:49:22;;;;;;;7.35;3.78;;;10.40;74.30;;;;;;5032027;28;20060;-71
2024/01/09 09:51:51;;;;;;;11.18;4.38;;;10.40;74.30;;;;;;5032031;28;20036;-72
2024/01/09 09:54:18;;;;;;;8.50;4.07;;;10.40;74.00;;;;;;5032311;28;20042;-71
2024/01/09 09:56:45;;;;;;;11.35;4.30;;;10.50;74.30;;;;;;5032185;28;20508;-72
2024/01/09 09:59:11;;;;;;;7.15;4.13;;;10.50;74.10;;;;;;5032582;28;20045;-71
2024/01/09 10:01:38;;;;;;;9.57;4.13;;;10.60;74.40;;;;;;5032087;28;20052;-72
2024/01/09 10:04:41;;;;;;;9.32;4.40;;;10.70;74.00;;;;;;5032126;28;20041;-70
2024/01/09 10:07:07;;;;;;;9.52;4.05;;;10.70;75.00;;;;;;5031919;28;20583;-71
2024/01/09 10:09:39;;;;;;;9.43;4.25;;;10.80;73.70;;;;;;5031960;28;20489;-71
2024/01/09 10:12:05;;;;;;;7.78;3.63;;;10.90;73.40;;;;;;5032015;28;20477;-70
2024/01/09 10:14:31;;;;;;;7.55;3.60;;;11.00;73.70;;;;;;5031618;28;20033;-70
2024/01/09 10:16:59;;;;;;;8.23;4.05;;;11.00;73.30;;;;;;5031499;28;20492;-72
2024/01/09 10:19:27;;;;;;;7.60;3.53;;;11.00;73.00;;;;;;5031201;28;20515;-70
2024/01/09 10:21:52;;;;;;;9.13;4.05;;;11.00;73.00;;;;;;5031649;28;20049;-70
2024/01/09 10:24:19;;;;;;;10.45;4.32;;;11.00;73.30;;;;;;5031758;28;20547;-71
2024/01/09 10:26:44;;;;;;;6.88;4.20;;;11.10;73.20;;;;;;5031618;28;20485;-71
2024/01/09 10:29:13;;;;;;;9.75;4.18;;;11.10;72.90;;;;;;5031720;28;20033;-70
2024/01/09 10:31:44;;;;;;;8.05;4.20;;;11.10;72.90;;;;;;5031677;28;20523;-71
2024/01/09 10:34:10;;;;;;;8.80;4.15;;;11.00;72.70;;;;;;5031739;28;20038;-70
2024/01/09 10:36:36;;;;;;;9.02;4.28;;;11.00;72.80;;;;;;5031815;28;20124;-70
2024/01/09 10:39:05;;;;;;;9.48;4.80;;;11.10;72.70;;;;;;5031634;28;20057;-71
2024/01/09 10:41:32;;;;;;;8.23;4.60;;;11.10;72.60;;;;;;5031720;28;20107;-72
2024/01/09 10:44:01;;;;;;;8.73;4.68;;;11.20;72.60;;;;;;5031366;28;20397;-71
2024/01/09 10:46:31;;;;;;;8.70;4.63;;;11.20;72.60;;;;;;5031865;28;20030;-71
2024/01/09 10:48:58;;;;;;;10.10;4.95;;;11.30;72.60;;;;;;5031344;28;20064;-71
2024/01/09 10:51:24;;;;;;;8.57;4.88;;;11.40;72.40;;;;;;5033129;28;20068;-71
2024/01/09 10:53:53;;;;;;;10.07;5.00;;;11.50;72.70;;;;;;5035248;28;20030;-71
2024/01/09 10:56:23;;;;;;;8.57;4.82;;;11.50;72.20;;;;;;5017246;28;20068;-71
2024/01/09 10:58:50;;;;;;;9.90;4.72;;;11.50;71.80;;;;;;5035420;28;20029;-69
2024/01/09 11:01:16;;;;;;;11.85;5.07;;;11.50;71.60;;;;;;5035673;28;20469;-71
2024/01/09 11:03:43;;;;;;;11.77;5.40;;;11.60;71.80;;;;;;5035566;28;20112;-72
2024/01/09 11:06:09;;;;;;;13.60;5.18;;;11.60;71.70;;;;;;5035127;28;20034;-74
2024/01/09 11:08:36;;;;;;;9.48;5.05;;;11.60;71.60;;;;;;5035160;28;20033;-72
2024/01/09 11:11:05;;;;;;;9.52;4.70;;;11.70;71.70;;;;;;5035299;28;20044;-72
2024/01/09 11:13:36;;;;;;;12.02;5.32;;;11.70;72.10;;;;;;5035231;28;20108;-71
2024/01/09 11:16:04;;;;;;;10.02;4.78;;;11.80;71.50;;;;;;5035072;28;20095;-70
2024/01/09 11:18:31;;;;;;;8.95;4.50;;;11.80;71.50;;;;;;5035498;28;20110;-70
2024/01/09 11:21:01;;;;;;;10.07;5.10;;;11.80;71.90;;;;;;5035245;28;20410;-71
2024/01/09 11:24:00;;;;;;;7.88;4.63;;;11.80;71.40;;;;;;5034658;28;20128;-71
2024/01/09 11:26:31;;;;;;;9.15;4.70;;;12.00;72.00;;;;;;5033259;28;20103;-71
2024/01/09 11:28:58;;;;;;;7.60;4.63;;;12.10;71.40;;;;;;5034592;28;20342;-72
2024/01/09 11:31:26;;;;;;;9.40;4.60;;;12.20;70.90;;;;;;5034636;28;20084;-71
2024/01/09 11:33:54;;;;;;;10.95;4.95;;;12.30;71.00;;;;;;5034526;28;20051;-73
2024/01/09 11:36:37;;;;;;;12.60;5.18;;;12.30;70.40;;;;;;5034829;28;20044;-70
2024/01/09 11:39:04;;;;;;;5.33;3.33;;;12.40;70.80;;;;;;5034551;28;20033;-73
2024/01/09 11:41:35;;;;;;;12.80;5.97;;;12.60;70.10;;;;;;5034323;28;20382;-72
2024/01/09 11:44:06;;;;;;;11.88;5.82;;;12.60;70.20;;;;;;5034545;28;20112;-71
2024/01/09 11:46:34;;;;;;;11.35;5.90;;;12.60;70.10;;;;;;5034093;28;20529;-72
2024/01/09 11:49:00;;;;;;;7.55;5.10;;;12.60;70.10;;;;;;5016529;28;20077;-73
2024/01/09 11:51:28;;;;;;;9.00;5.40;;;12.60;70.40;;;;;;5034318;28;20495;-73
2024/01/09 11:54:00;;;;;;;20.73;4.80;;;12.60;70.40;;;;;;5034469;28;20036;-70
2024/01/09 11:56:27;;;;;;;8.15;4.63;;;12.60;70.30;;;;;;5034433;28;20095;-70
2024/01/09 11:58:54;;;;;;;10.80;4.93;;;12.60;70.40;;;;;;5034116;28;20429;-71
2024/01/09 12:01:21;;;;;;;7.82;4.60;;;12.60;70.20;;;;;;5033697;28;20053;-72
2024/01/09 12:03:53;;;;;;;11.45;4.25;;;12.60;70.10;;;;;;5016405;28;20034;-71
2024/01/09 12:06:25;;;;;;;9.37;4.80;;;12.60;70.20;;;;;;5034029;28;20400;-72
2024/01/09 12:08:52;;;;;;;7.65;4.45;;;12.60;70.50;;;;;;5033986;28;20118;-71
2024/01/09 12:11:18;;;;;;;7.53;4.47;;;12.80;70.40;;;;;;5032808;28;20395;-71
2024/01/09 12:13:44;;;;;;;9.95;5.55;;;12.80;70.20;;;;;;5033843;28;20025;-71
2024/01/09 12:16:18;;;;;;;7.63;4.97;;;12.90;70.20;;;;;;5034007;28;20113;-72
2024/01/09 12:18:52;;;;;;;12.75;5.07;;;12.90;69.80;;;;;;5033316;28;20440;-71
2024/01/09 12:21:18;;;;;;;7.70;4.20;;;13.00;69.90;;;;;;5033657;28;20072;-70
2024/01/09 12:23:45;;;;;;;7.38;4.30;;;12.90;69.30;;;;;;5033573;28;20484;-70
2024/01/09 12:26:13;;;;;;;8.77;3.90;;;12.80;69.00;;;;;;5033552;28;20053;-71
2024/01/09 12:28:39;;;;;;;8.55;4.25;;;12.80;69.30;;;;;;5033527;28;20041;-72
2024/01/09 12:31:07;;;;;;;7.93;4.30;;;12.70;69.00;;;;;;5033426;28;20037;-71
2024/01/09 12:33:33;;;;;;;6.40;3.72;;;12.70;69.30;;;;;;5032009;28;20149;-71
2024/01/09 12:35:59;;;;;;;8.30;4.35;;;12.70;69.20;;;;;;5033188;28;20060;-69
2024/01/09 12:38:25;;;;;;;8.68;4.72;;;12.70;68.90;;;;;;5033459;28;20080;-70
2024/01/09 12:41:02;;;;;;;9.32;5.35;;;12.70;68.90;;;;;;5033416;28;20049;-71
2024/01/09 12:43:28;;;;;;;7.18;4.18;;;12.70;69.00;;;;;;5033703;28;20038;-71
2024/01/09 12:45:55;;;;;;;7.20;4.50;;;12.80;69.10;;;;;;5033596;28;20029;-72
2024/01/09 12:48:21;;;;;;;7.40;4.50;;;12.80;69.10;;;;;;5033223;28;20030;-71